Time;durP1;ratioP1;P1;durP2;ratioP2;P2;SDS_P1;SDS_P2;PMS_P1;PMS_P2;Temp;Humidity;BMP_temperature;BMP_pressure;BME280_temperature;BME280_humidity;BME280_pressure;Samples;Min_cycle;Max_cycle;Signal;HPM_P1;HPM_P2
2022/09/10 00:01:05;;;;;;;12.25;10.13;;;15.60;99.90;;;;;;5009730;28;20046;-50
2022/09/10 00:03:31;;;;;;;11.02;9.77;;;15.60;99.90;;;;;;5009995;28;20142;-51
2022/09/10 00:05:58;;;;;;;17.65;11.77;;;15.60;99.90;;;;;;5012572;28;20077;-51
2022/09/10 00:08:25;;;;;;;15.98;12.13;;;15.50;99.90;;;;;;5012041;28;20057;-53
2022/09/10 00:10:53;;;;;;;14.90;11.15;;;15.50;99.90;;;;;;5010940;28;20086;-49
2022/09/10 00:13:21;;;;;;;16.52;12.15;;;15.50;99.90;;;;;;5010203;28;20129;-48
2022/09/10 00:15:50;;;;;;;11.38;9.88;;;15.50;99.90;;;;;;5012549;28;20081;-51
2022/09/10 00:18:17;;;;;;;16.10;12.35;;;15.50;99.90;;;;;;5016220;28;20049;-49
2022/09/10 00:20:46;;;;;;;14.10;11.32;;;15.50;99.90;;;;;;5015437;28;20054;-53
2022/09/10 00:23:13;;;;;;;17.38;13.23;;;15.50;99.90;;;;;;5010152;28;20817;-52
2022/09/10 00:25:41;;;;;;;13.85;12.32;;;15.40;99.90;;;;;;5015116;28;20064;-48
2022/09/10 00:28:09;;;;;;;14.73;11.57;;;15.50;99.90;;;;;;5016512;28;20089;-52
2022/09/10 00:30:40;;;;;;;15.23;12.40;;;15.40;99.90;;;;;;5014657;28;20544;-52
2022/09/10 00:33:07;;;;;;;16.50;12.65;;;15.40;99.90;;;;;;5015267;28;20096;-46
2022/09/10 00:35:34;;;;;;;20.10;13.43;;;15.40;99.90;;;;;;5016125;28;20075;-50
2022/09/10 00:38:01;;;;;;;17.30;14.77;;;15.40;99.90;;;;;;5016285;28;20129;-48
2022/09/10 00:40:28;;;;;;;18.48;13.57;;;15.40;99.90;;;;;;5010662;28;20104;-50
2022/09/10 00:42:55;;;;;;;18.77;15.32;;;15.40;99.90;;;;;;5012692;28;20045;-49
2022/09/10 00:45:23;;;;;;;22.40;14.65;;;15.40;99.90;;;;;;5015060;28;20140;-53
2022/09/10 00:47:51;;;;;;;18.02;13.15;;;15.40;99.90;;;;;;5015296;28;20092;-44
2022/09/10 00:50:20;;;;;;;15.00;12.40;;;15.40;99.90;;;;;;5014497;28;20100;-50
2022/09/10 00:52:47;;;;;;;19.05;14.77;;;15.40;99.90;;;;;;5015223;28;20057;-53
2022/09/10 00:55:14;;;;;;;15.68;12.63;;;15.40;99.90;;;;;;5011916;28;20077;-53
2022/09/10 00:57:41;;;;;;;18.98;14.65;;;15.40;99.90;;;;;;5013188;28;20137;-49
2022/09/10 01:00:10;;;;;;;19.02;14.63;;;15.40;99.90;;;;;;5013329;28;20124;-48
2022/09/10 01:02:38;;;;;;;18.38;13.30;;;15.40;99.90;;;;;;5014032;28;20085;-48
2022/09/10 01:05:06;;;;;;;19.67;15.13;;;15.40;99.90;;;;;;5014147;28;20133;-50
2022/09/10 01:07:33;;;;;;;19.65;15.90;;;15.40;99.90;;;;;;5014465;28;20097;-51
2022/09/10 01:10:02;;;;;;;19.35;15.90;;;15.40;99.90;;;;;;5012882;28;20046;-48
2022/09/10 01:12:42;;;;;;;20.08;16.05;;;15.40;99.90;;;;;;5014486;28;20097;-48
2022/09/10 01:15:14;;;;;;;18.25;16.33;;;15.40;99.90;;;;;;5012330;28;20092;-51
2022/09/10 01:17:50;;;;;;;23.15;16.63;;;15.40;99.90;;;;;;5013490;28;20054;-48
2022/09/10 01:20:31;;;;;;;19.27;16.63;;;15.50;99.90;;;;;;4994710;28;20502;-48
2022/09/10 01:23:14;;;;;;;19.13;16.30;;;15.50;99.90;;;;;;5011145;28;20056;-48
2022/09/10 01:25:43;;;;;;;20.67;16.27;;;15.50;99.90;;;;;;5001275;28;20104;-48
2022/09/10 01:28:13;;;;;;;21.58;18.20;;;15.50;99.90;;;;;;5013129;28;20498;-53
2022/09/10 01:30:41;;;;;;;23.65;18.70;;;15.50;99.90;;;;;;5013611;28;20107;-50
2022/09/10 01:33:10;;;;;;;20.52;16.80;;;15.50;99.90;;;;;;5012461;28;20089;-43
2022/09/10 01:35:39;;;;;;;34.92;20.13;;;15.50;99.90;;;;;;5009243;28;20045;-48
2022/09/10 01:38:08;;;;;;;22.70;19.05;;;15.50;99.90;;;;;;5013071;28;20053;-44
2022/09/10 01:40:34;;;;;;;24.85;18.17;;;15.40;99.90;;;;;;5006658;28;20081;-45
2022/09/10 01:43:02;;;;;;;22.58;20.13;;;15.50;99.90;;;;;;5013068;28;20057;-47
2022/09/10 01:45:30;;;;;;;28.23;22.02;;;15.50;99.90;;;;;;5012196;28;20085;-51
2022/09/10 01:48:09;;;;;;;33.67;19.20;;;15.50;99.90;;;;;;5013611;28;20077;-47
2022/09/10 01:50:41;;;;;;;27.67;21.65;;;15.50;99.90;;;;;;5014502;28;20104;-48
2022/09/10 01:53:14;;;;;;;29.85;22.17;;;15.50;99.90;;;;;;5013125;28;20092;-43
2022/09/10 01:55:44;;;;;;;28.75;21.05;;;15.50;99.90;;;;;;5010001;28;20065;-47
2022/09/10 01:58:16;;;;;;;35.20;22.55;;;15.50;99.90;;;;;;5010752;28;20121;-51
2022/09/10 02:00:48;;;;;;;27.27;21.42;;;15.50;99.90;;;;;;5013488;28;20405;-49
2022/09/10 02:03:16;;;;;;;26.25;21.13;;;15.50;99.90;;;;;;5011654;28;20053;-43
2022/09/10 02:05:44;;;;;;;23.98;19.38;;;15.50;99.90;;;;;;5012312;28;20061;-49
2022/09/10 02:08:12;;;;;;;28.10;21.42;;;15.50;99.90;;;;;;5011946;28;20128;-48
2022/09/10 02:10:49;;;;;;;26.35;19.73;;;15.50;99.90;;;;;;5013082;28;20051;-47
2022/09/10 02:13:16;;;;;;;23.67;19.63;;;15.50;99.90;;;;;;5025954;28;20482;-41
2022/09/10 02:15:43;;;;;;;22.02;18.88;;;15.50;99.90;;;;;;5012552;28;20107;-47
2022/09/10 02:18:11;;;;;;;21.33;15.32;;;15.50;99.90;;;;;;5012633;28;20050;-49
2022/09/10 02:20:39;;;;;;;28.08;19.75;;;15.60;99.90;;;;;;5012696;28;20046;-48
2022/09/10 02:23:06;;;;;;;20.85;17.88;;;15.60;99.90;;;;;;5013556;28;20054;-46
2022/09/10 02:25:33;;;;;;;22.35;18.33;;;15.60;99.90;;;;;;5012668;28;20068;-46
2022/09/10 02:28:00;;;;;;;19.08;17.08;;;15.60;99.90;;;;;;5012799;28;20136;-49
2022/09/10 02:30:28;;;;;;;17.13;14.88;;;15.60;99.90;;;;;;5012933;28;20050;-45
2022/09/10 02:32:54;;;;;;;19.20;17.05;;;15.70;99.90;;;;;;5011031;28;20489;-49
2022/09/10 02:35:22;;;;;;;21.17;15.77;;;15.70;99.90;;;;;;5011017;28;20564;-48
2022/09/10 02:37:49;;;;;;;15.50;13.02;;;15.60;99.90;;;;;;5010316;28;20081;-46
2022/09/10 02:40:18;;;;;;;19.70;15.20;;;15.70;99.90;;;;;;5009245;28;20413;-49
2022/09/10 02:42:45;;;;;;;21.73;17.60;;;15.70;99.90;;;;;;5006207;28;20528;-49
2022/09/10 02:45:12;;;;;;;16.88;14.55;;;15.70;99.90;;;;;;5011813;28;20056;-44
2022/09/10 02:47:39;;;;;;;24.98;17.75;;;15.60;99.90;;;;;;5010731;28;20046;-49
2022/09/10 02:50:07;;;;;;;19.98;17.52;;;15.70;99.90;;;;;;5012499;28;20085;-48
2022/09/10 02:52:36;;;;;;;19.42;16.55;;;15.70;99.90;;;;;;5010713;28;20453;-51
2022/09/10 02:55:03;;;;;;;25.17;19.10;;;15.60;99.90;;;;;;5011871;28;20058;-48
2022/09/10 02:57:29;;;;;;;24.45;19.05;;;15.60;99.90;;;;;;5011598;28;20137;-51
2022/09/10 02:59:56;;;;;;;22.77;17.92;;;15.60;99.90;;;;;;5011571;28;20046;-50
2022/09/10 03:02:23;;;;;;;24.38;17.23;;;15.60;99.90;;;;;;5010321;28;20058;-49
2022/09/10 03:04:50;;;;;;;25.05;18.50;;;15.60;99.90;;;;;;5012797;28;20092;-47
2022/09/10 03:07:19;;;;;;;22.75;17.27;;;15.60;99.90;;;;;;5011754;28;20128;-49
2022/09/10 03:09:47;;;;;;;23.88;19.08;;;15.60;99.90;;;;;;5010981;28;20049;-49
2022/09/10 03:12:15;;;;;;;25.55;18.08;;;15.60;99.90;;;;;;5011780;28;20057;-49
2022/09/10 03:14:41;;;;;;;21.33;17.67;;;15.60;99.90;;;;;;5010876;28;20173;-48
2022/09/10 03:17:08;;;;;;;25.75;18.88;;;15.60;99.90;;;;;;5011628;28;20133;-51
2022/09/10 03:19:35;;;;;;;25.42;19.25;;;15.60;99.90;;;;;;5011315;28;20084;-48
2022/09/10 03:22:02;;;;;;;27.23;19.25;;;15.50;99.90;;;;;;5012536;28;20054;-46
2022/09/10 03:24:29;;;;;;;29.25;19.33;;;15.50;99.90;;;;;;5011775;28;20049;-50
2022/09/10 03:26:57;;;;;;;23.00;17.60;;;15.50;99.90;;;;;;5012584;28;20124;-50
2022/09/10 03:29:24;;;;;;;28.73;19.00;;;15.50;99.90;;;;;;5010894;28;20469;-49
2022/09/10 03:31:51;;;;;;;23.05;18.08;;;15.50;99.90;;;;;;5010585;28;20609;-51
2022/09/10 03:34:18;;;;;;;24.67;19.83;;;15.50;99.90;;;;;;5011472;28;20049;-50
2022/09/10 03:36:46;;;;;;;25.15;19.35;;;15.50;99.90;;;;;;5011018;28;20140;-50
2022/09/10 03:39:13;;;;;;;36.03;20.83;;;15.50;99.90;;;;;;5011352;28;20132;-50
2022/09/10 03:41:39;;;;;;;26.17;19.52;;;15.40;99.90;;;;;;5009843;28;20561;-49
2022/09/10 03:44:09;;;;;;;25.25;20.40;;;15.40;99.90;;;;;;5012205;28;20096;-49
2022/09/10 03:46:36;;;;;;;27.63;20.90;;;15.40;99.90;;;;;;5011214;28;20046;-50
2022/09/10 03:49:04;;;;;;;28.60;18.90;;;15.40;99.90;;;;;;5011259;28;20675;-50
2022/09/10 03:51:31;;;;;;;24.70;19.63;;;15.40;99.90;;;;;;5011047;28;20053;-52
2022/09/10 03:53:58;;;;;;;29.77;20.15;;;15.40;99.90;;;;;;5012471;28;20066;-47
2022/09/10 03:56:25;;;;;;;27.15;19.42;;;15.40;99.90;;;;;;5012325;28;20061;-50
2022/09/10 03:58:52;;;;;;;26.13;19.40;;;15.40;99.90;;;;;;5010138;28;20104;-48
2022/09/10 04:01:20;;;;;;;25.95;19.42;;;15.40;99.90;;;;;;5009728;28;20390;-52
2022/09/10 04:03:47;;;;;;;23.25;19.02;;;15.50;99.90;;;;;;5011666;28;20057;-52
2022/09/10 04:06:14;;;;;;;25.77;19.95;;;15.50;99.90;;;;;;5011445;28;20061;-53
2022/09/10 04:08:42;;;;;;;25.10;18.80;;;15.50;99.90;;;;;;5004957;28;20060;-48
2022/09/10 04:11:08;;;;;;;27.25;20.33;;;15.40;99.90;;;;;;5010678;28;20064;-49
2022/09/10 04:13:35;;;;;;;29.02;20.45;;;15.50;99.90;;;;;;5010424;28;20100;-47
2022/09/10 04:16:02;;;;;;;30.98;20.52;;;15.50;99.90;;;;;;5012203;28;20092;-50
2022/09/10 04:18:33;;;;;;;30.55;21.15;;;15.50;99.90;;;;;;5011901;28;20058;-47
2022/09/10 04:21:00;;;;;;;28.17;19.45;;;15.50;99.90;;;;;;5009803;28;20046;-47
2022/09/10 04:23:28;;;;;;;28.92;19.80;;;15.50;99.90;;;;;;5011166;28;20050;-49
2022/09/10 04:25:55;;;;;;;26.63;20.98;;;15.50;99.90;;;;;;5011732;28;20686;-49
2022/09/10 04:28:22;;;;;;;31.95;20.25;;;15.50;99.90;;;;;;5011246;28;20494;-50
2022/09/10 04:30:49;;;;;;;29.17;21.50;;;15.50;99.90;;;;;;5010358;28;20090;-42
2022/09/10 04:33:16;;;;;;;30.40;20.95;;;15.50;99.90;;;;;;5011641;28;20124;-50
2022/09/10 04:35:44;;;;;;;32.67;21.85;;;15.50;99.90;;;;;;5010511;28;20058;-48
2022/09/10 04:38:11;;;;;;;33.03;21.48;;;15.50;99.90;;;;;;5010241;28;20096;-47
2022/09/10 04:40:38;;;;;;;28.95;18.67;;;15.50;99.90;;;;;;5009816;28;20056;-48
2022/09/10 04:43:04;;;;;;;28.35;20.70;;;15.50;99.90;;;;;;5009119;28;20064;-47
2022/09/10 04:45:33;;;;;;;27.48;20.50;;;15.50;99.90;;;;;;5010819;28;20096;-49
2022/09/10 04:48:00;;;;;;;28.00;18.90;;;15.60;99.90;;;;;;5011141;28;20050;-50
2022/09/10 04:50:27;;;;;;;25.35;17.27;;;15.60;99.90;;;;;;5010537;28;20088;-47
2022/09/10 04:52:55;;;;;;;26.98;18.83;;;15.60;99.90;;;;;;5009818;28;20081;-43
2022/09/10 04:55:22;;;;;;;34.47;21.58;;;15.60;99.90;;;;;;4993607;28;20093;-48
2022/09/10 04:57:48;;;;;;;36.22;21.92;;;15.60;99.90;;;;;;5009852;28;20442;-48
2022/09/10 05:00:16;;;;;;;25.73;17.23;;;15.70;99.90;;;;;;5003658;28;20466;-51
2022/09/10 05:02:43;;;;;;;33.95;21.35;;;15.60;99.90;;;;;;5013022;28;20053;-48
2022/09/10 05:05:09;;;;;;;34.72;21.15;;;15.70;99.90;;;;;;5014859;28;20158;-48
2022/09/10 05:07:36;;;;;;;29.13;20.10;;;15.70;99.90;;;;;;5015129;28;20108;-50
2022/09/10 05:10:05;;;;;;;39.20;20.73;;;15.70;99.90;;;;;;5011405;28;20082;-50
2022/09/10 05:12:32;;;;;;;33.00;20.20;;;15.70;99.90;;;;;;5011454;28;20084;-48
2022/09/10 05:14:59;;;;;;;37.70;21.98;;;15.70;99.90;;;;;;5013821;28;20137;-48
2022/09/10 05:17:26;;;;;;;33.92;21.45;;;15.80;99.90;;;;;;5014489;28;20046;-49
2022/09/10 05:19:52;;;;;;;50.67;22.00;;;15.70;99.90;;;;;;5013172;28;20045;-51
2022/09/10 05:22:20;;;;;;;35.63;22.20;;;15.70;99.90;;;;;;5013091;28;20089;-50
2022/09/10 05:24:47;;;;;;;39.55;22.58;;;15.70;99.90;;;;;;5013478;28;20077;-52
2022/09/10 05:27:16;;;;;;;31.27;20.73;;;15.70;99.90;;;;;;5013055;28;20045;-48
2022/09/10 05:29:42;;;;;;;38.75;22.83;;;15.70;99.90;;;;;;5012887;28;20516;-46
2022/09/10 05:32:09;;;;;;;40.17;23.08;;;15.70;99.90;;;;;;5013446;28;20057;-49
2022/09/10 05:34:38;;;;;;;31.80;19.85;;;15.70;99.90;;;;;;5013669;28;20104;-48
2022/09/10 05:37:07;;;;;;;36.17;22.40;;;15.70;99.90;;;;;;5013099;28;20506;-45
2022/09/10 05:39:34;;;;;;;41.40;22.15;;;15.70;99.90;;;;;;5010884;28;20048;-42
2022/09/10 05:42:01;;;;;;;30.95;19.67;;;15.70;99.90;;;;;;5007735;28;20042;-47
2022/09/10 05:44:29;;;;;;;35.83;21.98;;;15.70;99.90;;;;;;5014647;28;20053;-47
2022/09/10 05:46:56;;;;;;;37.58;21.65;;;15.70;99.90;;;;;;5013772;28;20140;-48
2022/09/10 05:49:22;;;;;;;30.10;22.80;;;15.70;99.90;;;;;;5011470;28;20074;-49
2022/09/10 05:51:49;;;;;;;33.70;21.15;;;15.80;99.90;;;;;;5011315;28;20085;-47
2022/09/10 05:54:16;;;;;;;35.30;22.90;;;15.80;99.90;;;;;;5013142;28;20041;-51
2022/09/10 05:56:43;;;;;;;34.15;22.45;;;15.80;99.90;;;;;;5012382;28;20080;-48
2022/09/10 05:59:10;;;;;;;40.45;23.83;;;15.80;99.90;;;;;;5008785;28;20128;-49
2022/09/10 06:01:38;;;;;;;37.08;22.67;;;15.90;99.90;;;;;;5012518;28;20064;-47
2022/09/10 06:04:05;;;;;;;33.63;23.48;;;15.90;99.90;;;;;;5013191;28;20141;-47
2022/09/10 06:06:32;;;;;;;32.70;22.45;;;15.90;99.90;;;;;;5010264;28;20065;-48
2022/09/10 06:08:58;;;;;;;36.83;22.50;;;15.90;99.90;;;;;;5013845;28;20100;-48
2022/09/10 06:11:25;;;;;;;34.97;22.38;;;15.90;99.90;;;;;;5011814;28;20053;-47
2022/09/10 06:13:52;;;;;;;33.20;21.70;;;16.00;99.90;;;;;;5010925;28;20501;-48
2022/09/10 06:16:19;;;;;;;35.55;22.90;;;16.00;99.90;;;;;;5012766;28;20053;-45
2022/09/10 06:18:47;;;;;;;35.22;23.25;;;16.00;99.90;;;;;;5011331;28;20124;-48
2022/09/10 06:21:15;;;;;;;46.63;24.85;;;16.10;99.90;;;;;;5010429;28;20123;-47
2022/09/10 06:23:42;;;;;;;37.25;22.88;;;16.10;99.90;;;;;;5011568;28;20049;-49
2022/09/10 06:26:10;;;;;;;36.22;22.10;;;16.10;99.90;;;;;;5012269;28;20387;-47
2022/09/10 06:28:37;;;;;;;46.78;25.42;;;16.20;99.90;;;;;;5013188;28;20129;-48
2022/09/10 06:31:04;;;;;;;34.78;20.88;;;16.20;99.90;;;;;;5009696;28;20077;-46
2022/09/10 06:33:31;;;;;;;42.45;24.80;;;16.20;99.90;;;;;;5012087;28;20050;-50
2022/09/10 06:36:00;;;;;;;40.47;24.17;;;16.20;99.90;;;;;;5008498;28;20146;-47
2022/09/10 06:38:31;;;;;;;39.50;22.75;;;16.20;99.90;;;;;;5013007;28;20057;-36
2022/09/10 06:40:59;;;;;;;35.60;22.75;;;16.20;99.90;;;;;;5009899;28;20045;-42
2022/09/10 06:43:26;;;;;;;37.47;23.60;;;16.30;99.90;;;;;;5012362;28;20053;-49
2022/09/10 06:45:53;;;;;;;39.95;24.33;;;16.30;99.90;;;;;;5012200;28;20396;-49
2022/09/10 06:48:20;;;;;;;36.15;23.60;;;16.30;99.90;;;;;;5011831;28;20100;-46
2022/09/10 06:50:52;;;;;;;35.78;23.52;;;16.40;99.90;;;;;;5010690;28;20403;-48
2022/09/10 06:53:21;;;;;;;;;;;16.40;99.90;;;;;;5011260;28;20042;-50
2022/09/10 06:55:49;;;;;;;42.00;23.67;;;16.40;99.90;;;;;;5008763;28;20384;-50
2022/09/10 06:58:16;;;;;;;38.63;24.05;;;16.40;99.90;;;;;;5011719;28;20054;-52
2022/09/10 07:00:44;;;;;;;37.15;23.77;;;16.40;99.90;;;;;;5008940;28;20128;-44
2022/09/10 07:03:10;;;;;;;38.17;23.45;;;16.50;99.90;;;;;;5009787;28;20054;-50
2022/09/10 07:05:37;;;;;;;38.90;24.42;;;16.50;99.90;;;;;;5011453;28;20046;-50
2022/09/10 07:08:05;;;;;;;36.40;23.40;;;16.50;99.90;;;;;;5003767;28;20140;-50
2022/09/10 07:10:34;;;;;;;43.97;24.80;;;16.50;99.90;;;;;;5005523;28;20065;-52
2022/09/10 07:13:00;;;;;;;41.25;24.25;;;16.60;99.90;;;;;;5009989;28;20108;-52
2022/09/10 07:15:27;;;;;;;34.50;22.92;;;16.60;99.90;;;;;;5008985;28;20397;-46
2022/09/10 07:17:54;;;;;;;38.80;23.58;;;16.60;99.90;;;;;;5010063;28;20037;-48
2022/09/10 07:20:27;;;;;;;39.70;23.98;;;16.60;99.90;;;;;;5009221;28;20081;-51
2022/09/10 07:22:54;;;;;;;39.00;23.23;;;16.70;99.90;;;;;;5012076;28;20459;-50
2022/09/10 07:25:21;;;;;;;36.40;24.25;;;16.70;99.90;;;;;;5010713;28;20372;-49
2022/09/10 07:27:49;;;;;;;35.75;24.27;;;16.70;99.90;;;;;;5008492;28;20092;-46
2022/09/10 07:30:16;;;;;;;35.53;22.60;;;16.70;99.90;;;;;;5011356;28;20072;-51
2022/09/10 07:32:44;;;;;;;37.55;22.95;;;16.80;99.90;;;;;;5011494;28;20141;-50
2022/09/10 07:35:11;;;;;;;37.28;23.42;;;16.70;99.90;;;;;;5009662;28;20069;-51
2022/09/10 07:37:38;;;;;;;36.40;23.35;;;16.80;99.90;;;;;;5007574;28;20137;-43
2022/09/10 07:40:08;;;;;;;35.35;23.48;;;16.80;99.90;;;;;;5007756;28;20060;-46
2022/09/10 07:42:36;;;;;;;38.03;22.58;;;16.80;99.90;;;;;;5008345;28;20133;-48
2022/09/10 07:45:06;;;;;;;35.80;23.60;;;16.80;99.90;;;;;;5008795;28;20508;-45
2022/09/10 07:47:33;;;;;;;33.70;23.45;;;16.90;99.90;;;;;;5011345;28;20552;-48
2022/09/10 07:49:59;;;;;;;32.13;22.45;;;16.90;99.90;;;;;;5008088;28;20060;-46
2022/09/10 07:52:26;;;;;;;33.38;22.17;;;17.00;99.90;;;;;;5011605;28;20140;-48
2022/09/10 07:54:53;;;;;;;37.35;22.95;;;17.00;99.90;;;;;;5008846;28;20149;-46
2022/09/10 07:57:20;;;;;;;36.65;21.50;;;17.10;99.90;;;;;;5011467;28;20453;-44
2022/09/10 07:59:47;;;;;;;34.78;20.70;;;17.10;99.90;;;;;;5010011;28;20128;-45
2022/09/10 08:02:15;;;;;;;33.45;21.30;;;17.20;99.90;;;;;;5006018;28;20042;-46
2022/09/10 08:04:42;;;;;;;34.72;20.42;;;17.20;99.90;;;;;;5010322;28;20149;-46
2022/09/10 08:07:09;;;;;;;29.20;20.30;;;17.30;99.90;;;;;;5009226;28;20053;-45
2022/09/10 08:09:36;;;;;;;27.67;20.00;;;17.30;99.90;;;;;;5009950;28;20145;-46
2022/09/10 08:12:06;;;;;;;29.98;19.20;;;17.40;99.90;;;;;;5008592;28;20104;-47
2022/09/10 08:14:33;;;;;;;26.02;18.48;;;17.40;99.90;;;;;;5008618;28;20050;-43
2022/09/10 08:17:01;;;;;;;28.27;18.20;;;17.50;99.90;;;;;;5009756;28;20100;-45
2022/09/10 08:19:29;;;;;;;27.73;18.13;;;17.50;99.90;;;;;;4999375;28;20052;-45
2022/09/10 08:21:56;;;;;;;24.00;15.57;;;17.50;99.90;;;;;;5010704;28;20050;-41
2022/09/10 08:24:23;;;;;;;22.23;16.05;;;17.60;99.90;;;;;;5010761;28;20482;-46
2022/09/10 08:26:51;;;;;;;22.88;16.73;;;17.60;99.90;;;;;;5011974;28;20452;-47
2022/09/10 08:29:18;;;;;;;24.70;15.95;;;17.60;99.90;;;;;;5024301;28;20134;-46
2022/09/10 08:31:45;;;;;;;20.40;15.55;;;17.60;99.90;;;;;;5011829;28;20487;-49
2022/09/10 08:34:12;;;;;;;23.15;16.45;;;17.70;99.90;;;;;;5011247;28;20050;-46
2022/09/10 08:36:41;;;;;;;21.70;15.95;;;17.80;99.90;;;;;;5013094;28;20054;-43
2022/09/10 08:39:07;;;;;;;20.50;15.43;;;17.80;99.90;;;;;;5012391;28;20104;-45
2022/09/10 08:41:41;;;;;;;23.92;14.98;;;17.80;99.90;;;;;;5009630;28;20045;-47
2022/09/10 08:44:12;;;;;;;22.50;15.45;;;17.80;99.90;;;;;;5011455;28;20054;-40
2022/09/10 08:46:41;;;;;;;22.58;15.85;;;17.90;99.90;;;;;;5014308;28;20046;-46
2022/09/10 08:49:11;;;;;;;20.27;15.18;;;17.90;99.90;;;;;;5012663;28;20411;-44
2022/09/10 08:51:42;;;;;;;25.30;15.98;;;17.90;99.90;;;;;;5014821;28;20104;-44
2022/09/10 08:54:11;;;;;;;23.90;15.02;;;17.90;99.90;;;;;;5014202;28;20486;-48
2022/09/10 08:56:38;;;;;;;21.45;14.95;;;17.90;99.90;;;;;;5014868;28;20093;-50
2022/09/10 08:59:10;;;;;;;22.73;16.58;;;17.90;99.90;;;;;;5014028;28;20156;-43
2022/09/10 09:01:39;;;;;;;20.38;14.13;;;18.00;99.90;;;;;;5001651;28;20046;-46
2022/09/10 09:04:09;;;;;;;19.10;14.43;;;18.00;99.90;;;;;;5011687;28;20068;-44
2022/09/10 09:06:40;;;;;;;26.42;14.77;;;18.10;99.90;;;;;;5014123;28;20089;-48
2022/09/10 09:09:09;;;;;;;23.50;14.77;;;18.10;99.90;;;;;;5014870;28;20050;-46
2022/09/10 09:11:41;;;;;;;20.30;14.43;;;18.20;99.90;;;;;;5013114;28;20085;-46
2022/09/10 09:14:34;;;;;;;22.67;14.15;;;18.30;99.90;;;;;;5010756;28;20046;-44
2022/09/10 09:17:08;;;;;;;24.23;14.77;;;18.40;99.90;;;;;;5013661;28;20544;-49
2022/09/10 09:19:39;;;;;;;18.38;11.40;;;18.50;99.90;;;;;;5014726;28;21893;-45
2022/09/10 09:22:11;;;;;;;16.30;10.57;;;18.60;99.90;;;;;;5015059;28;20089;-45
2022/09/10 09:24:43;;;;;;;12.98;8.77;;;18.70;99.90;;;;;;5012290;28;20046;-42
2022/09/10 09:27:15;;;;;;;12.55;8.20;;;18.80;99.90;;;;;;5013280;28;20053;-44
2022/09/10 09:29:44;;;;;;;12.48;8.48;;;18.90;99.90;;;;;;5014266;28;20477;-46
2022/09/10 09:32:14;;;;;;;13.38;8.00;;;19.10;99.90;;;;;;5015223;28;20050;-47
2022/09/10 09:34:43;;;;;;;12.00;6.53;;;19.10;99.90;;;;;;5012134;28;20132;-41
2022/09/10 09:37:15;;;;;;;11.05;5.63;;;19.20;99.90;;;;;;5014524;28;20120;-44
2022/09/10 09:39:43;;;;;;;8.32;5.07;;;19.40;99.90;;;;;;5013432;28;20081;-42
2022/09/10 09:42:13;;;;;;;8.73;5.15;;;19.50;99.90;;;;;;5013914;28;20056;-47
2022/09/10 09:44:44;;;;;;;8.15;4.93;;;19.60;99.90;;;;;;5006823;28;20047;-39
2022/09/10 09:47:11;;;;;;;10.13;5.10;;;19.70;99.90;;;;;;5011032;28;20053;-45
2022/09/10 09:49:38;;;;;;;9.65;4.57;;;19.90;99.90;;;;;;5005612;28;20535;-43
2022/09/10 09:52:17;;;;;;;10.73;4.75;;;20.10;99.90;;;;;;5010955;28;20136;-44
2022/09/10 09:54:46;;;;;;;6.90;4.18;;;20.20;99.90;;;;;;5010386;28;20049;-47
2022/09/10 09:57:15;;;;;;;8.45;4.28;;;20.20;99.90;;;;;;5013207;28;20383;-44
2022/09/10 09:59:43;;;;;;;6.68;4.05;;;20.30;99.90;;;;;;5009396;28;20153;-45
2022/09/10 10:02:11;;;;;;;6.95;3.80;;;20.40;99.90;;;;;;5012746;28;20049;-44
2022/09/10 10:04:38;;;;;;;7.90;3.42;;;20.40;99.90;;;;;;4996885;28;20143;-41
2022/09/10 10:07:05;;;;;;;5.82;3.53;;;20.50;99.90;;;;;;5013261;28;20101;-45
2022/09/10 10:09:34;;;;;;;7.55;3.85;;;20.60;99.90;;;;;;5004293;28;20502;-43
2022/09/10 10:12:03;;;;;;;8.25;5.60;;;20.60;99.50;;;;;;5004985;28;20151;-46
2022/09/10 10:14:36;;;;;;;9.88;5.57;;;20.60;99.80;;;;;;5012477;28;20401;-45
2022/09/10 10:17:04;;;;;;;15.90;9.13;;;20.70;99.90;;;;;;4999990;28;20099;-46
2022/09/10 10:19:33;;;;;;;16.10;8.98;;;20.80;99.90;;;;;;4995754;28;20108;-48
2022/09/10 10:22:20;;;;;;;13.80;8.75;;;20.80;99.90;;;;;;5003465;28;20061;-46
2022/09/10 10:24:49;;;;;;;11.40;8.80;;;20.90;99.80;;;;;;5010710;28;20408;-46
2022/09/10 10:27:16;;;;;;;10.82;8.40;;;20.80;99.90;;;;;;5006411;28;20058;-44
2022/09/10 10:29:51;;;;;;;12.75;8.73;;;20.80;99.90;;;;;;5009240;28;20057;-43
2022/09/10 10:32:19;;;;;;;14.32;7.80;;;20.80;99.90;;;;;;5012995;28;20088;-44
2022/09/10 10:34:52;;;;;;;13.70;7.50;;;20.80;99.90;;;;;;5011810;28;20054;-44
2022/09/10 10:37:25;;;;;;;14.73;7.03;;;20.90;99.90;;;;;;5011001;28;20513;-44
2022/09/10 10:40:06;;;;;;;14.32;8.35;;;20.90;99.90;;;;;;5009493;28;20136;-42
2022/09/10 10:42:35;;;;;;;10.55;7.05;;;21.00;99.70;;;;;;5010768;28;20077;-43
2022/09/10 10:45:23;;;;;;;11.60;7.38;;;21.10;99.90;;;;;;5011403;28;20550;-44
2022/09/10 10:47:54;;;;;;;9.63;6.38;;;21.10;99.80;;;;;;5027328;28;20131;-44
2022/09/10 10:50:26;;;;;;;9.73;5.88;;;21.20;99.80;;;;;;5010041;28;20085;-43
2022/09/10 10:53:26;;;;;;;9.52;5.63;;;21.20;99.40;;;;;;5005338;28;20128;-47
2022/09/10 10:55:58;;;;;;;10.45;5.38;;;21.40;99.00;;;;;;4980402;28;20046;-44
2022/09/10 10:58:43;;;;;;;8.30;5.05;;;21.40;99.10;;;;;;5012607;28;20124;-44
2022/09/10 11:01:14;;;;;;;8.25;5.18;;;21.50;98.80;;;;;;5004191;28;20466;-46
2022/09/10 11:03:43;;;;;;;7.25;5.20;;;21.70;98.80;;;;;;5009063;28;20124;-48
2022/09/10 11:06:14;;;;;;;7.95;4.88;;;21.80;98.70;;;;;;5010278;28;20076;-46
2022/09/10 11:08:42;;;;;;;11.30;5.88;;;21.90;98.50;;;;;;5007809;28;20054;-44
2022/09/10 11:11:13;;;;;;;12.60;5.50;;;22.00;98.20;;;;;;5006643;28;20167;-45
2022/09/10 11:13:42;;;;;;;9.80;5.80;;;22.10;97.90;;;;;;5011915;28;20049;-44
2022/09/10 11:16:13;;;;;;;8.45;5.28;;;22.10;97.40;;;;;;5010366;28;20050;-47
2022/09/10 11:18:42;;;;;;;;;;;22.00;97.40;;;;;;5010658;28;20045;-42
2022/09/10 11:21:12;;;;;;;10.18;4.78;;;21.90;96.90;;;;;;5009948;28;19971;-46
2022/09/10 11:23:40;;;;;;;10.70;5.80;;;21.80;97.80;;;;;;5010691;28;20100;-45
2022/09/10 11:26:09;;;;;;;9.25;6.07;;;21.90;97.50;;;;;;5009801;28;20138;-44
2022/09/10 11:28:38;;;;;;;11.13;6.70;;;21.90;97.60;;;;;;5010251;28;20054;-47
2022/09/10 11:31:10;;;;;;;10.88;5.28;;;22.10;97.60;;;;;;5010980;28;20109;-44
2022/09/10 11:33:38;;;;;;;6.30;4.57;;;22.20;97.30;;;;;;5010216;28;20049;-43
2022/09/10 11:36:08;;;;;;;9.25;5.45;;;22.30;97.00;;;;;;5009479;28;20054;-46
2022/09/10 11:38:41;;;;;;;8.60;5.15;;;22.50;97.00;;;;;;5008279;28;20050;-45
2022/09/10 11:41:09;;;;;;;9.35;5.43;;;22.70;96.90;;;;;;5002418;28;20133;-43
2022/09/10 11:43:41;;;;;;;9.13;5.07;;;22.90;96.60;;;;;;5003793;28;20184;-44
2022/09/10 11:46:09;;;;;;;9.52;5.80;;;23.10;96.10;;;;;;5008005;28;20081;-42
2022/09/10 11:48:37;;;;;;;8.30;5.70;;;23.10;95.70;;;;;;5011769;28;20529;-44
2022/09/10 11:51:06;;;;;;;11.43;6.57;;;23.00;95.30;;;;;;5006526;28;20454;-43
2022/09/10 11:53:33;;;;;;;10.90;6.65;;;22.80;95.40;;;;;;5009251;28;20136;-43
2022/09/10 11:56:21;;;;;;;11.38;5.65;;;22.80;95.70;;;;;;5005988;28;20136;-47
2022/09/10 11:58:54;;;;;;;9.13;5.15;;;22.90;95.30;;;;;;4999142;28;20069;-43
2022/09/10 12:01:27;;;;;;;8.63;5.07;;;22.90;95.20;;;;;;5012079;28;20054;-45
2022/09/10 12:04:04;;;;;;;9.27;5.80;;;23.10;95.10;;;;;;5010959;28;20505;-43
2022/09/10 12:06:34;;;;;;;9.98;5.75;;;23.10;94.80;;;;;;4999702;28;20046;-46
2022/09/10 12:09:05;;;;;;;12.70;5.60;;;23.10;94.60;;;;;;5011432;28;20042;-43
2022/09/10 12:11:36;;;;;;;10.32;6.10;;;23.10;94.80;;;;;;5007893;28;20092;-44
2022/09/10 12:14:07;;;;;;;13.30;6.03;;;23.10;95.20;;;;;;5013347;28;20468;-43
2022/09/10 12:16:35;;;;;;;9.75;5.75;;;23.10;95.00;;;;;;5015093;28;20086;-45
2022/09/10 12:19:03;;;;;;;13.45;6.43;;;23.00;94.60;;;;;;5012688;28;20135;-40
2022/09/10 12:21:32;;;;;;;11.05;6.55;;;22.90;94.60;;;;;;5015276;28;20493;-44
2022/09/10 12:24:00;;;;;;;8.60;5.22;;;22.80;94.40;;;;;;5010460;28;20498;-47
2022/09/10 12:26:26;;;;;;;11.52;6.95;;;22.80;94.80;;;;;;5015656;28;20054;-42
2022/09/10 12:29:04;;;;;;;12.93;6.93;;;22.80;94.90;;;;;;5015654;28;20068;-43
2022/09/10 12:32:19;;;;;;;10.75;6.68;;;22.80;95.00;;;;;;5015275;28;20053;-44
2022/09/10 12:34:48;;;;;;;9.20;5.53;;;22.80;94.50;;;;;;4954925;28;20070;-44
2022/09/10 12:37:22;;;;;;;9.48;5.35;;;22.90;95.20;;;;;;4958208;28;20117;-43
2022/09/10 12:39:49;;;;;;;10.63;6.68;;;23.00;95.10;;;;;;4977581;28;20128;-43